Time;durP1;ratioP1;P1;durP2;ratioP2;P2;SDS_P1;SDS_P2;PMS_P1;PMS_P2;Temp;Humidity;BMP_temperature;BMP_pressure;BME280_temperature;BME280_humidity;BME280_pressure;Samples;Min_cycle;Max_cycle;Signal;HPM_P1;HPM_P2
2023/08/30 00:01:08;;;;;;;;;19.75;18.50;;;;;16.38;70.56;99178.19;5094614;28;8811;-58
2023/08/30 00:03:36;;;;;;;;;14.50;14.50;;;;;16.37;70.12;99166.56;5092981;28;8830;-58
2023/08/30 00:06:04;;;;;;;;;17.00;16.00;;;;;16.34;70.12;99167.72;5079327;28;8830;-58
2023/08/30 00:08:31;;;;;;;;;11.00;10.25;;;;;16.31;70.27;99169.94;5094646;28;8810;-56
2023/08/30 00:10:59;;;;;;;;;20.50;18.25;;;;;16.25;70.64;99170.66;5094488;28;9521;-60
2023/08/30 00:13:27;;;;;;;;;15.50;14.50;;;;;16.22;70.83;99175.56;5094424;28;8822;-59
2023/08/30 00:15:54;;;;;;;;;13.50;11.50;;;;;16.15;70.85;99167.34;5094787;28;8919;-58
2023/08/30 00:18:22;;;;;;;;;16.00;16.00;;;;;16.10;70.68;99166.19;5095335;28;8881;-60
2023/08/30 00:20:49;;;;;;;;;18.00;16.50;;;;;16.06;70.88;99171.09;5093896;28;8810;-59
2023/08/30 00:23:17;;;;;;;;;19.75;18.00;;;;;16.04;70.80;99164.22;5094494;28;8830;-58
2023/08/30 00:25:45;;;;;;;;;15.75;15.00;;;;;16.02;70.80;99166.25;5094901;28;8845;-58
2023/08/30 00:28:12;;;;;;;;;16.50;15.25;;;;;16.00;71.28;99162.91;5094244;28;8856;-59
2023/08/30 00:30:40;;;;;;;;;16.50;16.50;;;;;15.98;71.32;99162.22;5096918;28;8888;-60
2023/08/30 00:33:08;;;;;;;;;18.25;17.00;;;;;15.96;71.09;99166.94;5098853;28;8818;-60
2023/08/30 00:35:36;;;;;;;;;14.00;12.50;;;;;15.93;71.63;99167.31;5098713;28;8838;-60
2023/08/30 00:38:03;;;;;;;;;9.75;9.75;;;;;15.91;71.03;99170.16;5098784;28;8809;-59
2023/08/30 00:40:31;;;;;;;;;18.00;16.50;;;;;15.91;71.46;99166.66;5098935;28;8818;-58
2023/08/30 00:42:59;;;;;;;;;21.75;19.50;;;;;15.89;71.55;99163.28;5098490;28;8840;-58
2023/08/30 00:45:28;;;;;;;;;20.00;19.25;;;;;15.87;71.37;99168.84;5097829;28;8826;-59
2023/08/30 00:47:56;;;;;;;;;24.50;19.00;;;;;15.85;71.71;99157.41;5098610;28;8832;-60
2023/08/30 00:50:23;;;;;;;;;16.50;15.75;;;;;15.84;71.44;99162.97;5098301;28;8960;-59
2023/08/30 00:52:51;;;;;;;;;19.25;15.75;;;;;15.83;71.82;99163.97;5098166;28;8841;-58
2023/08/30 00:55:19;;;;;;;;;13.50;13.00;;;;;15.81;71.26;99153.41;5098016;28;8841;-60
2023/08/30 00:57:46;;;;;;;;;15.75;14.50;;;;;15.79;71.47;99149.22;5097744;28;8826;-59
2023/08/30 01:00:15;;;;;;;;;16.75;14.00;;;;;15.73;71.58;99141.88;5097770;28;8830;-60
2023/08/30 01:02:42;;;;;;;;;18.25;17.50;;;;;15.66;72.12;99140.88;5098157;28;8850;-57
2023/08/30 01:05:10;;;;;;;;;20.25;17.75;;;;;15.59;72.14;99137.22;5097956;28;8826;-58
2023/08/30 01:07:38;;;;;;;;;16.00;15.00;;;;;15.52;72.02;99134.41;5097807;28;8822;-59
2023/08/30 01:10:06;;;;;;;;;15.50;14.25;;;;;15.47;72.32;99135.94;5097434;28;8803;-59
2023/08/30 01:12:33;;;;;;;;;23.00;21.50;;;;;15.41;72.63;99126.72;5097927;28;9523;-59
2023/08/30 01:15:01;;;;;;;;;16.00;15.00;;;;;15.36;72.91;99133.59;5097236;28;8830;-60
2023/08/30 01:17:28;;;;;;;;;17.00;15.75;;;;;15.28;72.57;99121.03;5097085;28;9725;-60
2023/08/30 01:19:56;;;;;;;;;17.75;16.25;;;;;15.23;73.09;99127.91;5097939;28;8818;-58
2023/08/30 01:22:24;;;;;;;;;16.00;15.50;;;;;15.18;73.19;99122.22;5097858;28;8870;-58
2023/08/30 01:24:51;;;;;;;;;19.00;18.25;;;;;15.14;72.84;99127.09;5098283;28;9530;-57
2023/08/30 01:27:19;;;;;;;;;18.25;15.50;;;;;15.11;73.11;99129.28;5097483;28;8845;-58
2023/08/30 01:29:47;;;;;;;;;18.00;18.00;;;;;15.07;73.05;99118.06;5097197;28;8830;-59
2023/08/30 01:32:14;;;;;;;;;24.00;22.00;;;;;15.02;73.32;99123.09;5097944;28;8836;-59
2023/08/30 01:34:42;;;;;;;;;23.00;21.25;;;;;14.99;73.28;99123.44;5097003;28;8824;-58
2023/08/30 01:37:10;;;;;;;;;20.50;19.00;;;;;14.96;73.18;99128.28;5096769;28;8906;-58
2023/08/30 01:39:38;;;;;;;;;21.25;18.00;;;;;14.93;73.46;99121.44;5097593;28;8895;-60
2023/08/30 01:42:06;;;;;;;;;19.25;16.00;;;;;14.90;73.43;99120.94;5097176;28;8818;-57
2023/08/30 01:44:33;;;;;;;;;19.00;18.00;;;;;14.87;73.56;99122.09;5096740;28;8806;-59
2023/08/30 01:47:01;;;;;;;;;16.50;16.00;;;;;14.83;73.47;99126.13;5097174;28;9943;-59
2023/08/30 01:49:28;;;;;;;;;21.50;19.75;;;;;14.78;73.94;99128.47;5097077;28;8830;-60
2023/08/30 01:51:56;;;;;;;;;19.00;18.00;;;;;14.75;73.97;99127.97;5097128;28;8850;-60
2023/08/30 01:54:23;;;;;;;;;21.75;19.00;;;;;14.70;73.59;99125.78;5097059;28;8837;-59
2023/08/30 01:56:51;;;;;;;;;26.50;21.00;;;;;14.66;73.75;99126.31;5097936;28;9500;-59
2023/08/30 01:59:18;;;;;;;;;23.50;18.00;;;;;14.61;74.21;99125.97;5096420;28;8844;-59
2023/08/30 02:01:46;;;;;;;;;20.00;18.00;;;;;14.55;73.72;99114.06;5097023;28;9530;-59
2023/08/30 02:04:14;;;;;;;;;21.25;19.50;;;;;14.48;74.01;99115.75;5096625;28;8818;-59
2023/08/30 02:06:42;;;;;;;;;24.25;18.25;;;;;14.43;74.66;99119.94;5096773;28;8826;-59
2023/08/30 02:09:09;;;;;;;;;17.75;16.75;;;;;14.39;74.01;99121.25;5096529;28;8814;-59
2023/08/30 02:11:37;;;;;;;;;20.00;18.25;;;;;14.33;74.24;99122.75;5097391;28;8822;-59
2023/08/30 02:14:06;;;;;;;;;21.75;18.25;;;;;14.27;73.98;99126.09;5096843;28;8849;-59
2023/08/30 02:16:33;;;;;;;;;18.50;15.50;;;;;14.24;74.63;99125.59;5096387;28;8838;-59
2023/08/30 02:19:01;;;;;;;;;22.00;18.00;;;;;14.20;74.98;99132.28;5096692;28;8822;-59
2023/08/30 02:21:29;;;;;;;;;18.50;16.00;;;;;14.18;74.17;99129.78;5096331;28;8942;-58
2023/08/30 02:23:57;;;;;;;;;16.50;15.50;;;;;14.16;74.73;99130.91;5096636;28;9510;-58
2023/08/30 02:26:25;;;;;;;;;15.50;15.00;;;;;14.15;74.70;99118.50;5096740;28;8849;-59
2023/08/30 02:28:53;;;;;;;;;18.00;15.00;;;;;14.15;74.63;99118.50;5096724;28;8814;-60
2023/08/30 02:31:20;;;;;;;;;20.00;18.75;;;;;14.14;74.65;99124.88;5096155;28;8814;-56
2023/08/30 02:33:48;;;;;;;;;18.50;18.00;;;;;14.14;74.54;99114.16;5096513;28;8837;-59
2023/08/30 02:36:15;;;;;;;;;16.00;13.50;;;;;14.11;74.84;99114.50;5095830;28;8838;-59
2023/08/30 02:38:44;;;;;;;;;20.50;18.25;;;;;14.10;74.42;99116.34;5096173;28;8830;-59
2023/08/30 02:41:12;;;;;;;;;19.50;17.00;;;;;14.08;74.76;99112.13;5096392;28;8853;-59
2023/08/30 02:43:39;;;;;;;;;19.00;16.50;;;;;14.06;75.05;99114.16;5096453;28;9483;-59
2023/08/30 02:46:07;;;;;;;;;23.00;19.00;;;;;14.06;74.54;99111.47;5095283;28;8846;-60
2023/08/30 02:48:35;;;;;;;;;18.25;17.50;;;;;14.04;74.71;99111.63;5096056;28;8853;-59
2023/08/30 02:51:02;;;;;;;;;17.50;15.50;;;;;14.06;75.04;99111.47;5096138;28;8834;-57
2023/08/30 02:53:30;;;;;;;;;18.75;17.50;;;;;14.08;74.55;99106.78;5095152;28;8826;-59
2023/08/30 02:55:57;;;;;;;;;17.50;15.75;;;;;14.13;75.06;99107.97;5095433;28;8861;-59
2023/08/30 02:58:25;;;;;;;;;20.50;18.00;;;;;14.17;74.16;99108.47;5095973;28;8838;-59
2023/08/30 03:00:51;;;;;;;;;16.00;15.00;;;;;14.18;74.25;99097.63;5095736;28;8865;-57
2023/08/30 03:03:19;;;;;;;;;20.75;16.50;;;;;14.20;74.52;99100.97;5095425;28;8822;-57
2023/08/30 03:05:47;;;;;;;;;21.75;19.00;;;;;14.19;73.99;99096.63;5095780;28;8903;-60
2023/08/30 03:08:17;;;;;;;;;19.00;18.00;;;;;14.18;74.41;99088.78;5095935;28;8940;-59
2023/08/30 03:10:44;;;;;;;;;18.50;15.00;;;;;14.17;74.26;99092.41;5095763;28;8838;-58
2023/08/30 03:13:12;;;;;;;;;20.50;18.25;;;;;14.16;74.56;99098.75;5096058;28;8821;-59
2023/08/30 03:15:40;;;;;;;;;15.00;12.50;;;;;14.15;73.98;99103.31;5095247;28;8834;-59
2023/08/30 03:18:07;;;;;;;;;17.00;16.50;;;;;14.16;74.41;99110.31;5095414;28;8836;-60
2023/08/30 03:20:35;;;;;;;;;24.00;21.25;;;;;14.19;73.91;99098.50;5095110;28;9303;-58
2023/08/30 03:23:03;;;;;;;;;21.25;21.00;;;;;14.22;74.14;99100.81;5094864;28;8948;-59
2023/08/30 03:25:30;;;;;;;;;19.50;17.00;;;;;14.23;74.08;99089.94;5095022;28;8845;-58
2023/08/30 03:27:59;;;;;;;;;19.50;17.50;;;;;14.24;74.10;99090.78;5095519;28;8837;-58
2023/08/30 03:30:27;;;;;;;;;21.50;18.50;;;;;14.25;73.95;99084.41;5095352;28;8834;-58
2023/08/30 03:32:55;;;;;;;;;19.50;17.50;;;;;14.29;74.00;99088.44;5094641;28;9463;-58
2023/08/30 03:35:22;;;;;;;;;17.50;16.50;;;;;14.30;74.08;99088.28;5095532;28;8834;-57
2023/08/30 03:37:50;;;;;;;;;18.50;15.25;;;;;14.31;74.04;99089.97;5095299;28;8818;-57
2023/08/30 03:40:18;;;;;;;;;18.75;18.50;;;;;14.31;73.88;99081.91;5094713;28;8810;-60
2023/08/30 03:42:45;;;;;;;;;20.00;19.50;;;;;14.30;73.77;99092.78;5094865;28;8911;-57
2023/08/30 03:45:13;;;;;;;;;24.00;21.00;;;;;14.27;74.35;99095.81;5094191;28;8853;-58
2023/08/30 03:47:40;;;;;;;;;16.50;16.50;;;;;14.26;73.92;99091.47;5094832;28;8814;-57
2023/08/30 03:50:09;;;;;;;;;18.25;16.50;;;;;14.24;73.84;99088.09;5095028;28;8833;-60
2023/08/30 03:52:36;;;;;;;;;15.25;14.50;;;;;14.21;73.85;99091.94;5094277;28;8826;-59
2023/08/30 03:55:04;;;;;;;;;17.50;15.00;;;;;14.18;74.01;99083.44;5094391;28;8838;-59
2023/08/30 03:57:31;;;;;;;;;25.25;22.75;;;;;14.14;74.39;99087.38;5094649;28;8838;-58
2023/08/30 03:59:59;;;;;;;;;16.00;15.50;;;;;14.10;74.39;99092.22;5094647;28;8841;-59
2023/08/30 04:02:26;;;;;;;;;18.00;15.25;;;;;14.05;74.50;99091.06;5093471;28;8841;-57
2023/08/30 04:04:54;;;;;;;;;20.25;15.75;;;;;14.00;74.62;99088.03;5096136;28;8822;-59
2023/08/30 04:07:22;;;;;;;;;15.00;15.00;;;;;13.95;75.17;99087.69;5098631;28;8834;-60
2023/08/30 04:09:49;;;;;;;;;20.50;18.75;;;;;13.89;74.97;99085.69;5097877;28;8814;-58
2023/08/30 04:12:17;;;;;;;;;13.50;13.00;;;;;13.84;75.41;99080.81;5097955;28;8834;-58
2023/08/30 04:14:45;;;;;;;;;17.75;17.25;;;;;13.78;74.73;99078.78;5098282;28;8852;-59
2023/08/30 04:17:13;;;;;;;;;18.75;17.00;;;;;13.74;75.33;99081.97;5098738;28;8830;-57
2023/08/30 04:19:40;;;;;;;;;16.00;16.00;;;;;13.71;75.05;99077.75;5098441;28;8834;-58
2023/08/30 04:22:08;;;;;;;;;21.50;17.00;;;;;13.66;74.84;99066.69;5098275;28;8803;-58
2023/08/30 04:24:35;;;;;;;;;18.75;15.00;;;;;13.61;75.27;99069.06;5098361;28;8813;-57
2023/08/30 04:27:03;;;;;;;;;13.00;12.00;;;;;13.53;75.90;99077.00;5098304;28;8826;-59
2023/08/30 04:29:31;;;;;;;;;13.50;12.75;;;;;13.47;76.02;99076.84;5098733;28;8830;-59
2023/08/30 04:31:59;;;;;;;;;14.50;13.50;;;;;13.40;75.74;99073.97;5098291;28;8830;-59
2023/08/30 04:34:27;;;;;;;;;14.75;13.25;;;;;13.34;76.27;99073.75;5097975;28;8845;-58
2023/08/30 04:36:54;;;;;;;;;15.75;13.00;;;;;13.27;76.24;99072.72;5098213;28;8834;-59
2023/08/30 04:39:22;;;;;;;;;15.50;14.50;;;;;13.22;76.30;99075.06;5098057;28;8826;-59
2023/08/30 04:41:49;;;;;;;;;20.00;18.00;;;;;13.17;76.77;99075.56;5097220;28;9775;-59
2023/08/30 04:44:17;;;;;;;;;21.25;17.75;;;;;13.14;76.36;99072.34;5097590;28;8853;-59
2023/08/30 04:46:44;;;;;;;;;15.50;13.50;;;;;13.11;76.17;99072.66;5097782;28;8842;-59
2023/08/30 04:49:12;;;;;;;;;11.50;10.00;;;;;13.09;76.14;99069.31;5097698;28;8830;-58
2023/08/30 04:51:40;;;;;;;;;13.00;12.50;;;;;13.09;75.99;99067.50;5096767;28;8811;-57
2023/08/30 04:54:07;;;;;;;;;16.75;14.75;;;;;13.09;76.05;99063.97;5097230;28;8849;-59
2023/08/30 04:56:35;;;;;;;;;17.50;17.50;;;;;13.09;76.68;99061.28;5097302;28;8838;-59
2023/08/30 04:59:03;;;;;;;;;17.50;14.50;;;;;13.10;76.50;99068.31;5097304;28;8818;-56
2023/08/30 05:01:31;;;;;;;;;15.00;14.50;;;;;13.10;76.04;99060.28;5096776;28;8933;-59
2023/08/30 05:03:58;;;;;;;;;16.75;15.00;;;;;13.11;76.14;99059.28;5097362;28;8840;-59
2023/08/30 05:06:27;;;;;;;;;18.75;17.50;;;;;13.10;76.42;99057.63;5096722;28;8825;-59
2023/08/30 05:08:54;;;;;;;;;11.00;9.50;;;;;13.08;76.24;99056.94;5096275;28;8834;-58
2023/08/30 05:11:22;;;;;;;;;15.25;13.50;;;;;13.07;75.92;99055.28;5096557;28;8810;-59
2023/08/30 05:13:50;;;;;;;;;16.25;14.75;;;;;13.04;76.47;99047.56;5096185;28;8810;-59
2023/08/30 05:16:17;;;;;;;;;21.50;18.75;;;;;13.02;76.06;99054.91;5096267;28;9535;-57
2023/08/30 05:18:47;;;;;;;;;19.50;18.25;;;;;13.05;76.44;99052.75;5096566;28;8903;-56
2023/08/30 05:21:15;;;;;;;;;17.75;17.25;;;;;13.10;76.03;99049.59;5096660;28;8822;-56
2023/08/30 05:23:42;;;;;;;;;20.00;18.00;;;;;13.12;76.21;99036.91;5096170;28;8825;-57
2023/08/30 05:26:12;;;;;;;;;13.50;12.25;;;;;13.14;76.15;99030.41;5096291;28;8814;-59
2023/08/30 05:28:40;;;;;;;;;21.25;19.75;;;;;13.17;76.28;99029.25;5095337;28;8960;-57
2023/08/30 05:31:07;;;;;;;;;21.50;18.50;;;;;13.20;75.82;99027.09;5096612;28;8838;-58
2023/08/30 05:33:35;;;;;;;;;19.50;15.50;;;;;13.23;75.72;99024.09;5096094;28;8837;-59
2023/08/30 05:36:03;;;;;;;;;17.50;16.00;;;;;13.26;75.71;99020.25;5095879;28;8829;-59
2023/08/30 05:38:30;;;;;;;;;18.00;16.00;;;;;13.28;75.49;99015.59;5094811;28;8844;-58
2023/08/30 05:40:59;;;;;;;;;14.50;11.75;;;;;13.29;75.45;99026.13;5094948;28;8884;-59
2023/08/30 05:43:26;;;;;;;;;19.50;15.75;;;;;13.33;75.15;99027.50;5095192;28;8837;-57
2023/08/30 05:45:54;;;;;;;;;16.50;15.50;;;;;13.37;75.61;99025.31;5095018;28;8864;-59
2023/08/30 05:48:22;;;;;;;;;23.00;20.00;;;;;13.43;75.20;99024.69;5095056;28;8842;-58
2023/08/30 05:50:49;;;;;;;;;21.50;20.00;;;;;13.46;75.40;99025.19;5094537;28;8845;-58
2023/08/30 05:53:17;;;;;;;;;22.75;18.25;;;;;13.46;74.94;99029.69;5094534;28;8853;-58
2023/08/30 05:55:45;;;;;;;;;16.25;14.50;;;;;13.48;75.61;99022.34;5094002;28;8968;-58
2023/08/30 05:58:13;;;;;;;;;19.00;16.50;;;;;13.47;75.59;99012.66;5093501;28;8826;-57
2023/08/30 06:00:41;;;;;;;;;15.25;15.00;;;;;13.47;75.25;99015.31;5093758;28;8838;-55
2023/08/30 06:03:10;;;;;;;;;17.75;14.50;;;;;13.48;75.22;99006.28;5092765;28;8830;-57
2023/08/30 06:05:38;;;;;;;;;16.50;15.25;;;;;13.48;75.16;99006.28;5091548;28;8931;-57
2023/08/30 06:08:06;;;;;;;;;21.25;20.75;;;;;13.50;74.97;99001.59;5090901;28;8830;-57
2023/08/30 06:10:34;;;;;;;;;13.50;12.00;;;;;13.52;75.01;99007.66;5091198;28;8844;-59
2023/08/30 06:13:02;;;;;;;;;16.50;15.50;;;;;13.55;75.14;99004.63;5092069;28;8854;-57
2023/08/30 06:15:30;;;;;;;;;18.00;18.00;;;;;13.59;75.38;99004.16;5092254;28;8834;-57
2023/08/30 06:17:58;;;;;;;;;18.75;17.50;;;;;13.63;74.86;98993.94;5092993;28;8844;-58
2023/08/30 06:20:26;;;;;;;;;24.25;22.50;;;;;13.68;74.43;98988.97;5092962;28;8830;-56
2023/08/30 06:22:53;;;;;;;;;18.75;17.00;;;;;13.74;74.85;98993.66;5093578;28;8960;-57
2023/08/30 06:25:22;;;;;;;;;18.00;16.00;;;;;13.80;74.52;98984.94;5093038;28;8822;-58
2023/08/30 06:27:49;;;;;;;;;21.50;19.00;;;;;13.86;74.75;98989.63;5091864;28;8972;-59
2023/08/30 06:30:17;;;;;;;;;21.50;20.75;;;;;13.93;74.36;98982.63;5092302;28;8842;-57
2023/08/30 06:32:45;;;;;;;;;24.00;21.50;;;;;14.04;74.21;98982.31;5093008;28;8968;-59
2023/08/30 06:35:12;;;;;;;;;21.25;19.50;;;;;14.14;73.97;98973.09;5093444;28;8976;-59
2023/08/30 06:37:40;;;;;;;;;22.00;21.00;;;;;14.25;73.31;98977.28;5093902;28;8830;-59
2023/08/30 06:40:08;;;;;;;;;19.00;18.50;;;;;14.36;73.54;98969.75;5094928;28;8845;-57
2023/08/30 06:42:35;;;;;;;;;18.00;18.00;;;;;14.47;72.91;98968.56;5094490;28;8875;-59
2023/08/30 06:45:04;;;;;;;;;24.00;22.50;;;;;14.58;73.35;98965.53;5093883;28;8822;-58
2023/08/30 06:47:31;;;;;;;;;23.50;21.00;;;;;14.68;73.18;98963.50;5093832;28;8861;-56
2023/08/30 06:49:59;;;;;;;;;24.25;23.50;;;;;14.78;72.56;98964.13;5094089;28;8838;-58
2023/08/30 06:52:27;;;;;;;;;22.00;19.50;;;;;14.87;72.69;98950.53;5093534;28;8848;-59
2023/08/30 06:54:54;;;;;;;;;22.00;21.00;;;;;14.96;72.43;98952.16;5092620;28;8829;-58
2023/08/30 06:57:22;;;;;;;;;23.25;20.00;;;;;15.10;71.87;98961.34;5092388;28;8848;-57
2023/08/30 06:59:50;;;;;;;;;22.25;21.25;;;;;15.21;72.32;98952.88;5093237;28;8818;-57
2023/08/30 07:02:18;;;;;;;;;24.25;21.00;;;;;15.31;71.41;98953.53;5093151;28;8976;-58
2023/08/30 07:04:46;;;;;;;;;27.50;24.50;;;;;15.41;71.99;98944.25;5093786;28;8944;-56
2023/08/30 07:07:13;;;;;;;;;38.25;32.00;;;;;15.51;72.02;98944.88;5093149;28;8829;-57
2023/08/30 07:09:42;;;;;;;;;35.50;32.00;;;;;15.64;71.86;98939.75;5093081;28;8849;-58
2023/08/30 07:12:09;;;;;;;;;27.00;24.50;;;;;15.77;70.91;98941.84;5093465;28;8837;-58
2023/08/30 07:14:37;;;;;;;;;32.75;28.50;;;;;15.89;70.73;98941.25;5092738;28;9074;-57
2023/08/30 07:17:07;;;;;;;;;36.25;33.75;;;;;16.02;70.51;98933.44;5092831;28;8861;-59
2023/08/30 07:19:34;;;;;;;;;41.50;36.00;;;;;16.15;70.61;98933.63;5092483;28;8849;-57
2023/08/30 07:22:02;;;;;;;;;34.25;33.00;;;;;16.27;70.40;98932.19;5092835;28;8915;-57
2023/08/30 07:24:30;;;;;;;;;27.50;24.50;;;;;16.37;70.11;98932.78;5093003;28;8832;-57
2023/08/30 07:26:58;;;;;;;;;33.75;32.00;;;;;16.45;70.44;98933.53;5093361;28;8826;-57
2023/08/30 07:29:26;;;;;;;;;44.50;35.50;;;;;16.54;69.67;98939.66;5093145;28;8869;-58
2023/08/30 07:31:54;;;;;;;;;35.25;33.00;;;;;16.62;69.83;98937.72;5093587;28;8846;-58
2023/08/30 07:34:23;;;;;;;;;33.50;29.75;;;;;16.70;69.74;98934.94;5094008;28;8834;-58
2023/08/30 07:36:50;;;;;;;;;30.00;27.00;;;;;16.79;69.85;98931.13;5093444;28;8844;-58
2023/08/30 07:39:18;;;;;;;;;25.00;24.25;;;;;16.88;69.30;98931.88;5093263;28;8822;-57
2023/08/30 07:41:46;;;;;;;;;26.25;23.50;;;;;16.99;69.54;98934.94;5093593;28;9515;-59
2023/08/30 07:44:14;;;;;;;;;32.25;29.25;;;;;17.11;68.87;98936.13;5093803;28;8920;-59
2023/08/30 07:46:42;;;;;;;;;33.50;27.75;;;;;17.19;69.34;98936.03;5093926;28;8850;-59
2023/08/30 07:49:10;;;;;;;;;27.75;25.75;;;;;17.29;68.99;98923.09;5093894;28;8861;-59
2023/08/30 07:51:38;;;;;;;;;22.50;21.50;;;;;17.40;68.88;98922.63;5093607;28;8830;-57
2023/08/30 07:54:05;;;;;;;;;33.50;31.50;;;;;17.50;68.63;98923.19;5093770;28;9531;-59
2023/08/30 07:56:33;;;;;;;;;27.50;25.00;;;;;17.60;68.03;98922.88;5094162;28;9488;-58
2023/08/30 07:59:01;;;;;;;;;29.50;27.00;;;;;17.67;68.15;98929.97;5093703;28;9817;-60
2023/08/30 08:01:29;;;;;;;;;27.75;26.50;;;;;17.75;68.71;98926.34;5093518;28;8837;-57
2023/08/30 08:03:57;;;;;;;;;27.00;25.00;;;;;17.83;68.31;98934.28;5093060;28;8853;-58
2023/08/30 08:06:34;;;;;;;;;24.00;22.00;;;;;17.93;67.97;98935.59;5092867;28;8822;-59
2023/08/30 08:09:04;;;;;;;;;22.25;18.25;;;;;18.01;67.85;98934.66;5092586;28;9511;-59
2023/08/30 08:11:32;;;;;;;;;21.75;18.75;;;;;18.05;68.02;98926.00;5092675;28;8834;-57
2023/08/30 08:14:00;;;;;;;;;30.25;27.75;;;;;18.15;67.33;98933.75;5093315;28;8849;-57
2023/08/30 08:16:28;;;;;;;;;21.60;21.20;;;;;18.25;67.15;98934.25;5093106;28;8934;-58
2023/08/30 08:18:59;;;;;;;;;23.50;18.75;;;;;18.37;67.15;98925.44;5092987;28;9596;-57
2023/08/30 08:21:27;;;;;;;;;20.20;19.40;;;;;18.50;67.31;98922.84;5092806;28;8829;-58
2023/08/30 08:23:55;;;;;;;;;27.80;24.40;;;;;18.63;66.25;98925.66;5093376;28;8960;-58
2023/08/30 08:26:22;;;;;;;;;26.00;23.60;;;;;18.76;66.48;98920.31;5093730;28;9487;-58
2023/08/30 08:28:50;;;;;;;;;20.00;19.40;;;;;18.85;66.22;98921.84;5092140;28;8919;-59
2023/08/30 08:31:18;;;;;;;;;24.80;20.80;;;;;18.96;66.10;98912.34;5092218;28;8838;-59
2023/08/30 08:33:49;;;;;;;;;24.40;21.80;;;;;19.05;65.77;98911.16;5092021;28;8818;-59
2023/08/30 08:36:16;;;;;;;;;15.80;14.80;;;;;19.17;65.42;98910.38;5091170;28;8822;-59
2023/08/30 08:38:44;;;;;;;;;17.20;17.20;;;;;19.30;64.82;98915.88;5091481;28;8830;-59
2023/08/30 08:41:15;;;;;;;;;13.40;12.20;;;;;19.46;64.37;98903.84;5091765;28;8841;-58
2023/08/30 08:43:42;;;;;;;;;18.00;17.40;;;;;19.60;64.00;98906.41;5091865;28;8826;-59
2023/08/30 08:46:11;;;;;;;;;11.60;10.40;;;;;19.71;63.99;98913.88;5091804;28;8988;-57
2023/08/30 08:48:39;;;;;;;;;15.60;13.40;;;;;19.81;64.04;98918.91;5092727;28;9648;-59
2023/08/30 08:51:07;;;;;;;;;15.40;13.00;;;;;19.86;63.68;98906.44;5093998;28;8822;-60
2023/08/30 08:53:35;;;;;;;;;14.40;12.80;;;;;19.93;63.56;98901.88;5096916;28;8830;-60
2023/08/30 08:56:03;;;;;;;;;16.60;13.00;;;;;20.01;62.97;98898.97;5096795;28;8972;-59
2023/08/30 08:58:32;;;;;;;;;12.60;11.20;;;;;20.12;62.60;98906.50;5096584;28;8842;-59
2023/08/30 09:01:00;;;;;;;;;16.00;14.20;;;;;20.20;62.85;98897.31;5097017;28;8830;-58
2023/08/30 09:03:27;;;;;;;;;13.40;13.00;;;;;20.28;62.07;98892.56;5096625;28;8834;-59
2023/08/30 09:05:55;;;;;;;;;11.20;11.20;;;;;20.39;61.97;98896.50;5096532;28;8821;-58
2023/08/30 09:08:23;;;;;;;;;12.20;11.00;;;;;20.52;61.52;98891.91;5096152;28;8829;-58
2023/08/30 09:10:52;;;;;;;;;10.40;10.20;;;;;20.70;61.46;98896.66;5095387;28;9965;-59
2023/08/30 09:13:22;;;;;;;;;10.00;10.00;;;;;20.86;60.96;98894.31;5095005;28;8852;-57
2023/08/30 09:15:50;;;;;;;;;4.20;2.00;;;;;21.02;60.24;98893.88;5095346;28;9531;-59
2023/08/30 09:18:18;;;;;;;;;11.00;10.20;;;;;21.15;60.29;98899.22;5094791;28;8834;-60
2023/08/30 09:20:45;;;;;;;;;7.40;7.20;;;;;21.16;59.85;98885.50;5094311;28;8854;-58
2023/08/30 09:23:14;;;;;;;;;10.20;8.00;;;;;21.26;59.22;98890.44;5094404;28;8830;-57
2023/08/30 09:25:42;;;;;;;;;10.40;10.00;;;;;21.24;60.11;98887.09;5094607;28;8829;-58
2023/08/30 09:28:09;;;;;;;;;7.60;7.60;;;;;21.20;60.03;98885.88;5095031;28;8840;-57
2023/08/30 09:30:39;;;;;;;;;9.00;7.80;;;;;21.15;59.66;98877.56;5094830;28;8860;-57
2023/08/30 09:33:07;;;;;;;;;9.80;7.60;;;;;21.13;60.08;98885.09;5094327;28;8838;-59
2023/08/30 09:35:35;;;;;;;;;10.00;10.00;;;;;21.13;60.02;98885.09;5094762;28;8838;-59
2023/08/30 09:38:03;;;;;;;;;7.80;7.20;;;;;21.05;59.60;98885.31;5094522;28;8841;-58
2023/08/30 09:40:31;;;;;;;;;9.20;9.20;;;;;20.88;59.75;98873.31;5095153;28;8822;-58
2023/08/30 09:42:59;;;;;;;;;8.00;8.00;;;;;20.67;60.50;98873.56;5094994;28;9807;-59
2023/08/30 09:45:39;;;;;;;;;7.40;7.00;;;;;20.48;60.73;98877.13;5093920;28;8837;-58
2023/08/30 09:48:07;;;;;;;;;5.00;4.20;;;;;20.31;61.13;98873.19;5094769;28;9503;-59
2023/08/30 09:50:35;;;;;;;;;16.40;15.40;;;;;20.24;61.11;98876.97;5095343;28;8853;-57
2023/08/30 09:53:03;;;;;;;;;11.00;10.00;;;;;20.35;60.98;98874.44;5094633;28;8853;-59
2023/08/30 09:55:31;;;;;;;;;10.00;8.00;;;;;20.61;60.29;98871.69;5094506;28;8956;-59
2023/08/30 09:57:59;;;;;;;;;7.20;7.00;;;;;20.85;59.90;98861.00;5093523;28;8844;-58
2023/08/30 10:00:28;;;;;;;;;11.20;9.60;;;;;21.14;59.13;98865.06;5093460;28;8830;-58
2023/08/30 10:02:56;;;;;;;;;9.60;9.60;;;;;21.45;58.01;98862.41;5092956;28;8834;-60
2023/08/30 10:05:30;;;;;;;;;7.40;7.40;;;;;22.22;57.05;98855.63;5094284;28;8794;-60
2023/08/30 10:07:57;;;;;;;;;11.60;10.80;;;;;22.60;55.90;98855.47;5093401;28;8822;-58
2023/08/30 10:10:25;;;;;;;;;8.40;8.00;;;;;22.74;55.90;98852.41;5093792;28;8840;-60
2023/08/30 10:12:53;;;;;;;;;11.20;8.80;;;;;22.72;56.00;98850.97;5093505;28;8850;-59
2023/08/30 10:15:36;;;;;;;;;8.40;8.40;;;;;22.50;56.05;98857.88;5094988;28;8834;-59
2023/08/30 10:18:04;;;;;;;;;12.80;11.80;;;;;22.35;56.12;98846.50;5095176;28;9540;-59
2023/08/30 10:20:32;;;;;;;;;11.00;10.20;;;;;22.27;56.06;98838.66;5093530;28;9614;-60
2023/08/30 10:23:02;;;;;;;;;10.20;10.20;;;;;22.12;55.86;98840.88;5093563;28;8887;-59
2023/08/30 10:25:30;;;;;;;;;9.20;8.00;;;;;21.91;57.17;98830.44;5092712;28;8825;-59
2023/08/30 10:27:58;;;;;;;;;10.60;10.60;;;;;21.87;56.85;98830.03;5094130;28;8844;-59
2023/08/30 10:30:26;;;;;;;;;9.40;8.60;;;;;21.91;56.63;98825.84;5093855;28;8956;-59
2023/08/30 10:32:54;;;;;;;;;5.20;5.00;;;;;21.88;57.51;98822.75;5093117;28;8826;-60
2023/08/30 10:35:22;;;;;;;;;8.80;8.00;;;;;21.74;57.48;98821.19;5094015;28;8826;-58
2023/08/30 10:37:49;;;;;;;;;10.40;9.40;;;;;21.62;57.54;98814.75;5094777;28;8830;-57
2023/08/30 10:40:19;;;;;;;;;11.60;9.20;;;;;21.52;57.55;98822.56;5094189;28;8838;-59
2023/08/30 10:42:48;;;;;;;;;10.20;8.60;;;;;21.49;57.56;98825.72;5094280;28;8826;-58
2023/08/30 10:45:15;;;;;;;;;11.00;9.40;;;;;21.47;57.66;98817.81;5094344;28;8826;-60
2023/08/30 10:47:44;;;;;;;;;11.80;11.40;;;;;21.37;58.09;98819.31;5094486;28;8938;-57
2023/08/30 10:50:12;;;;;;;;;10.40;10.40;;;;;21.21;58.76;98817.97;5094071;28;8838;-59
2023/08/30 10:52:40;;;;;;;;;7.40;7.00;;;;;20.96;58.83;98822.44;5094095;28;9384;-57
2023/08/30 10:55:08;;;;;;;;;11.00;10.80;;;;;20.72;59.80;98819.63;5094742;28;9523;-60
2023/08/30 10:57:36;;;;;;;;;10.80;10.80;;;;;20.50;60.18;98825.50;5093732;28;8841;-60
2023/08/30 11:00:04;;;;;;;;;11.80;10.00;;;;;20.29;60.18;98834.72;5092924;28;8826;-59
2023/08/30 11:02:32;;;;;;;;;10.20;8.80;;;;;20.07;60.83;98827.88;5092534;28;8833;-57
2023/08/30 11:05:00;;;;;;;;;6.20;5.00;;;;;19.90;61.75;98829.31;5092340;28;8848;-58
2023/08/30 11:07:28;;;;;;;;;11.80;10.80;;;;;19.73;61.84;98833.44;5092916;28;8923;-59
2023/08/30 11:09:58;;;;;;;;;15.40;13.60;;;;;19.61;61.54;98831.56;5091640;28;8879;-60
2023/08/30 11:12:26;;;;;;;;;5.80;5.80;;;;;19.51;62.04;98821.16;5092070;28;8834;-58
2023/08/30 11:14:54;;;;;;;;;7.00;5.20;;;;;19.42;61.96;98822.41;5091986;28;8845;-59
2023/08/30 11:17:23;;;;;;;;;8.20;8.20;;;;;19.38;61.69;98831.97;5092534;28;9678;-57
2023/08/30 11:19:50;;;;;;;;;11.20;11.20;;;;;19.35;62.27;98832.34;5092916;28;8841;-58
2023/08/30 11:22:18;;;;;;;;;4.40;4.00;;;;;19.32;62.03;98838.19;5093005;28;8910;-58
2023/08/30 11:24:46;;;;;;;;;10.00;9.60;;;;;19.01;62.56;98854.03;5093284;28;9538;-58
2023/08/30 11:27:15;;;;;;;;;13.40;12.20;;;;;18.40;64.21;98867.63;5093569;28;8830;-59
2023/08/30 11:29:43;;;;;;;;;15.80;15.60;;;;;17.83;66.28;98857.00;5092855;28;8818;-59